Time;durP1;ratioP1;P1;durP2;ratioP2;P2;SDS_P1;SDS_P2;PMS_P1;PMS_P2;Temp;Humidity;BMP_temperature;BMP_pressure;BME280_temperature;BME280_humidity;BME280_pressure;Samples;Min_cycle;Max_cycle;Signal;HPM_P1;HPM_P2
2021/05/27 00:01:26;;;;;;;;;;;8.70;99.90;;;;;;5096103;28;19946;-75
2021/05/27 00:03:52;;;;;;;;;;;8.70;99.90;;;;;;5095801;28;20272;-75
2021/05/27 00:06:18;;;;;;;;;;;8.70;99.90;;;;;;5095620;28;20339;-75
2021/05/27 00:08:45;;;;;;;;;;;8.70;99.90;;;;;;5095636;28;20291;-75
2021/05/27 00:11:12;;;;;;;;;;;8.70;99.90;;;;;;5095700;28;20339;-75
2021/05/27 00:13:38;;;;;;;;;;;8.80;99.90;;;;;;5095385;28;19931;-75
2021/05/27 00:16:05;;;;;;;;;;;8.80;99.90;;;;;;5095528;28;19934;-75
2021/05/27 00:18:31;;;;;;;;;;;8.80;99.90;;;;;;5095501;28;19988;-75
2021/05/27 00:20:58;;;;;;;;;;;8.80;99.90;;;;;;5095416;28;19932;-76
2021/05/27 00:23:24;;;;;;;;;;;8.70;99.90;;;;;;5095443;28;19924;-75
2021/05/27 00:25:50;;;;;;;;;;;8.70;99.90;;;;;;5095458;28;19931;-75
2021/05/27 00:28:17;;;;;;;;;;;8.70;99.90;;;;;;5095441;28;19934;-75
2021/05/27 00:30:44;;;;;;;;;;;8.70;99.90;;;;;;5095356;28;19928;-75
2021/05/27 00:33:10;;;;;;;;;;;8.60;99.90;;;;;;5095322;28;19924;-75
2021/05/27 00:35:36;;;;;;;;;;;8.60;99.90;;;;;;5095253;28;19924;-75
2021/05/27 00:38:03;;;;;;;;;;;8.60;99.90;;;;;;5095322;28;20225;-75
2021/05/27 00:40:29;;;;;;;;;;;8.60;99.90;;;;;;5095440;28;19931;-75
2021/05/27 00:42:55;;;;;;;;;;;8.60;99.90;;;;;;5095497;28;19924;-75
2021/05/27 00:45:23;;;;;;;;;;;8.50;99.90;;;;;;5095327;28;20268;-75
2021/05/27 00:47:49;;;;;;;;;;;8.50;99.90;;;;;;5095243;28;19934;-75
2021/05/27 00:50:20;;;;;;;;;;;8.50;99.90;;;;;;5095056;28;19935;-75
2021/05/27 00:52:47;;;;;;;;;;;8.40;99.90;;;;;;5095394;28;19947;-75
2021/05/27 00:55:14;;;;;;;;;;;8.40;99.90;;;;;;5095273;28;19978;-75
2021/05/27 00:57:40;;;;;;;;;;;8.40;99.90;;;;;;5095399;28;19932;-75
2021/05/27 01:00:08;;;;;;;;;;;8.30;99.90;;;;;;5095244;28;19924;-75
2021/05/27 01:02:35;;;;;;;;;;;8.30;99.90;;;;;;5095051;28;19939;-75
2021/05/27 01:05:01;;;;;;;;;;;8.30;99.90;;;;;;5094983;28;19924;-75
2021/05/27 01:07:28;;;;;;;;;;;8.40;99.90;;;;;;5095089;28;20005;-75
2021/05/27 01:09:54;;;;;;;;;;;8.40;99.90;;;;;;5098830;28;20340;-75
2021/05/27 01:12:20;;;;;;;;;;;8.40;99.90;;;;;;5098812;28;19942;-75
2021/05/27 01:17:31;;;;;;;;;;;8.40;99.90;;;;;;5098963;28;20362;-75
2021/05/27 01:19:58;;;;;;;;;;;8.30;99.90;;;;;;5099064;28;19924;-75
2021/05/27 01:22:25;;;;;;;;;;;8.30;99.90;;;;;;5098776;28;19928;-75
2021/05/27 01:24:51;;;;;;;;;;;8.30;99.90;;;;;;5098715;28;19939;-75
2021/05/27 01:27:18;;;;;;;;;;;8.30;99.90;;;;;;5098628;28;19938;-75
2021/05/27 01:29:49;;;;;;;;;;;8.20;99.90;;;;;;5098671;28;19942;-75
2021/05/27 01:32:16;;;;;;;;;;;8.20;99.90;;;;;;5098866;28;19932;-75
2021/05/27 01:34:42;;;;;;;;;;;8.20;99.90;;;;;;5098698;28;19924;-75
2021/05/27 01:37:08;;;;;;;;;;;8.20;99.90;;;;;;5098633;28;19924;-75
2021/05/27 01:39:36;;;;;;;;;;;8.20;99.90;;;;;;5098323;28;20263;-75
2021/05/27 01:42:03;;;;;;;;;;;8.20;99.90;;;;;;5098500;28;19934;-75
2021/05/27 01:44:29;;;;;;;;;;;8.20;99.90;;;;;;5098428;28;19924;-75
2021/05/27 01:46:55;;;;;;;;;;;8.20;99.90;;;;;;5098587;28;19924;-75
2021/05/27 01:49:21;;;;;;;;;;;8.20;99.90;;;;;;5098542;28;19935;-75
2021/05/27 01:51:49;;;;;;;;;;;8.20;99.90;;;;;;5098500;28;19996;-75
2021/05/27 01:54:15;;;;;;;;;;;8.10;99.90;;;;;;5098332;28;19925;-75
2021/05/27 01:56:42;;;;;;;;;;;8.10;99.90;;;;;;5098251;28;19924;-75
2021/05/27 01:59:09;;;;;;;;;;;8.10;99.90;;;;;;5098119;28;19934;-75
2021/05/27 02:01:35;;;;;;;;;;;8.10;99.90;;;;;;5098334;28;19924;-75
2021/05/27 02:04:01;;;;;;;;;;;8.00;99.90;;;;;;5098212;28;19924;-75
2021/05/27 02:06:28;;;;;;;;;;;8.00;99.90;;;;;;5097962;28;19931;-75
2021/05/27 02:09:10;;;;;;;;;;;8.00;99.90;;;;;;5097958;28;19979;-75
2021/05/27 02:11:39;;;;;;;;;;;7.90;99.90;;;;;;5097576;28;19977;-75
2021/05/27 02:14:07;;;;;;;;;;;7.90;99.90;;;;;;5097845;28;20371;-75
2021/05/27 02:16:33;;;;;;;;;;;7.90;99.90;;;;;;5097793;28;20290;-75
2021/05/27 02:19:00;;;;;;;;;;;7.80;99.90;;;;;;5097396;28;19924;-75
2021/05/27 02:21:26;;;;;;;;;;;7.80;99.90;;;;;;5097060;28;19946;-75
2021/05/27 02:23:53;;;;;;;;;;;7.80;99.90;;;;;;5097750;28;19932;-75
2021/05/27 02:26:19;;;;;;;;;;;7.80;99.90;;;;;;5097631;28;19973;-75
2021/05/27 02:28:46;;;;;;;;;;;7.80;99.90;;;;;;5097764;28;19946;-75
2021/05/27 02:31:13;;;;;;;;;;;7.80;99.90;;;;;;5097482;28;20255;-75
2021/05/27 02:33:39;;;;;;;;;;;7.70;99.90;;;;;;5097464;28;20344;-75
2021/05/27 02:36:06;;;;;;;;;;;7.70;99.90;;;;;;5097390;28;20364;-76
2021/05/27 02:38:32;;;;;;;;;;;7.70;99.90;;;;;;5097421;28;19923;-75
2021/05/27 02:40:59;;;;;;;;;;;7.60;99.90;;;;;;5097475;28;19930;-76
2021/05/27 02:43:25;;;;;;;;;;;7.60;99.90;;;;;;5097564;28;19924;-75
2021/05/27 02:45:51;;;;;;;;;;;7.60;99.90;;;;;;5097485;28;19928;-75
2021/05/27 02:48:18;;;;;;;;;;;7.60;99.90;;;;;;5097372;28;19930;-76
2021/05/27 02:50:45;;;;;;;;;;;7.50;99.90;;;;;;5097078;28;19928;-76
2021/05/27 02:53:11;;;;;;;;;;;7.50;99.90;;;;;;5097141;28;19924;-76
2021/05/27 02:55:37;;;;;;;;;;;7.50;99.90;;;;;;5097060;28;19977;-76
2021/05/27 02:58:04;;;;;;;;;;;7.40;99.90;;;;;;5097228;28;19996;-76
2021/05/27 03:00:30;;;;;;;;;;;7.30;99.90;;;;;;5097067;28;19924;-76
2021/05/27 03:02:56;;;;;;;;;;;7.30;99.90;;;;;;5097027;28;19935;-76
2021/05/27 03:05:24;;;;;;;;;;;7.30;99.90;;;;;;5097016;28;19924;-76
2021/05/27 03:07:50;;;;;;;;;;;7.30;99.90;;;;;;5096820;28;19932;-76
2021/05/27 03:10:16;;;;;;;;;;;7.30;99.90;;;;;;5096722;28;19924;-75
2021/05/27 03:12:43;;;;;;;;;;;7.30;99.90;;;;;;5096389;28;19924;-76
2021/05/27 03:15:09;;;;;;;;;;;7.30;99.90;;;;;;5096613;28;19934;-76
2021/05/27 03:17:35;;;;;;;;;;;7.30;99.90;;;;;;5096728;28;19986;-76
2021/05/27 03:20:02;;;;;;;;;;;7.30;99.90;;;;;;5096625;28;19924;-76
2021/05/27 03:22:29;;;;;;;;;;;7.30;99.90;;;;;;5096655;28;20249;-76
2021/05/27 03:24:55;;;;;;;;;;;7.30;99.90;;;;;;5096374;28;19935;-75
2021/05/27 03:27:22;;;;;;;;;;;7.30;99.90;;;;;;5096460;28;19924;-75
2021/05/27 03:29:48;;;;;;;;;;;7.30;99.90;;;;;;5096280;28;19924;-76
2021/05/27 03:32:15;;;;;;;;;;;7.30;99.90;;;;;;5096042;28;19932;-76
2021/05/27 03:34:41;;;;;;;;;;;7.30;99.90;;;;;;5096235;28;19924;-76
2021/05/27 03:37:07;;;;;;;;;;;7.40;99.90;;;;;;5096358;28;19930;-76
2021/05/27 03:39:34;;;;;;;;;;;7.50;99.90;;;;;;5095994;28;19924;-76
2021/05/27 03:42:01;;;;;;;;;;;7.50;99.90;;;;;;5096452;28;19924;-76
2021/05/27 03:44:27;;;;;;;;;;;7.60;99.90;;;;;;5096096;28;19924;-76
2021/05/27 03:46:54;;;;;;;;;;;7.60;99.90;;;;;;5096272;28;19924;-76
2021/05/27 03:49:20;;;;;;;;;;;7.60;99.90;;;;;;5096089;28;19936;-76
2021/05/27 03:51:46;;;;;;;;;;;7.70;99.90;;;;;;5096061;28;19924;-76
2021/05/27 03:54:13;;;;;;;;;;;7.70;99.90;;;;;;5095965;28;19960;-76
2021/05/27 03:56:40;;;;;;;;;;;7.70;99.90;;;;;;5095945;28;19932;-75
2021/05/27 04:01:50;;;;;;;;;;;7.70;99.90;;;;;;5095971;28;19930;-76
2021/05/27 04:07:11;;;;;;;;;;;7.70;99.90;;;;;;5095922;28;19947;-76
2021/05/27 04:09:37;;;;;;;;;;;7.60;99.90;;;;;;5095595;28;19924;-76
2021/05/27 04:17:30;;;;;;;;;;;7.50;99.90;;;;;;5095438;28;19920;-75
2021/05/27 04:19:56;;;;;;;;;;;7.50;99.90;;;;;;5097071;28;20263;-76
2021/05/27 04:22:22;;;;;;;;;;;7.50;99.90;;;;;;5228384;22;20306;-78
2021/05/27 04:24:49;;;;;;;;;;;7.50;99.90;;;;;;5095566;28;19924;-78
2021/05/27 04:27:16;;;;;;;;;;;7.50;99.90;;;;;;5095497;28;19924;-78
2021/05/27 04:29:42;;;;;;;;;;;7.40;99.90;;;;;;5095228;28;19940;-78
2021/05/27 04:32:51;;;;;;;;;;;7.40;99.90;;;;;;5095390;28;20252;-76
2021/05/27 04:34:55;;;;;;;;;;;7.40;99.90;;;;;;5095185;28;19924;-76
2021/05/27 04:37:21;;;;;;;;;;;7.40;99.90;;;;;;5095243;28;20245;-76
2021/05/27 04:39:47;;;;;;;;;;;7.40;99.90;;;;;;5095238;28;20405;-75
2021/05/27 04:42:14;;;;;;;;;;;7.40;99.90;;;;;;5094326;28;19989;-75
2021/05/27 04:44:41;;;;;;;;;;;7.30;99.90;;;;;;5094994;28;19950;-75
2021/05/27 04:47:07;;;;;;;;;;;7.30;99.90;;;;;;5094719;28;20332;-74
2021/05/27 04:49:34;;;;;;;;;;;7.30;99.90;;;;;;5095055;28;19924;-75
2021/05/27 04:52:00;;;;;;;;;;;7.40;99.90;;;;;;5094972;28;19930;-75
2021/05/27 04:54:26;;;;;;;;;;;7.30;99.90;;;;;;5095073;28;19924;-74
2021/05/27 04:56:53;;;;;;;;;;;7.40;99.90;;;;;;5094516;28;19924;-75
2021/05/27 04:59:19;;;;;;;;;;;7.50;99.90;;;;;;5094641;28;19985;-75
2021/05/27 05:01:46;;;;;;;;;;;7.50;99.90;;;;;;5094486;28;19954;-75
2021/05/27 05:04:13;;;;;;;;;;;7.60;99.90;;;;;;5094462;28;19934;-75
2021/05/27 05:06:39;;;;;;;;;;;7.70;99.90;;;;;;5094793;28;19931;-75
2021/05/27 05:09:05;;;;;;;;;;;7.70;99.90;;;;;;5095140;28;19924;-75
2021/05/27 05:11:32;;;;;;;;;;;7.80;99.90;;;;;;5095000;28;20270;-75
2021/05/27 05:13:59;;;;;;;;;;;7.80;99.90;;;;;;5094976;28;19931;-75
2021/05/27 05:16:25;;;;;;;;;;;7.80;99.90;;;;;;5094917;28;19989;-75
2021/05/27 05:18:52;;;;;;;;;;;7.80;99.90;;;;;;5095036;28;19936;-75
2021/05/27 05:21:18;;;;;;;;;;;7.90;99.90;;;;;;5094758;28;19924;-75
2021/05/27 05:23:45;;;;;;;;;;;7.90;99.90;;;;;;5094865;28;19930;-75
2021/05/27 05:26:11;;;;;;;;;;;7.90;99.90;;;;;;5094637;28;19950;-75
2021/05/27 05:28:37;;;;;;;;;;;7.90;99.90;;;;;;5094556;28;20355;-75
2021/05/27 05:31:04;;;;;;;;;;;8.00;99.90;;;;;;5094270;28;19931;-75
2021/05/27 05:33:30;;;;;;;;;;;8.10;99.90;;;;;;5094837;28;19935;-75
2021/05/27 05:35:57;;;;;;;;;;;8.10;99.90;;;;;;5094758;28;19924;-75
2021/05/27 05:38:24;;;;;;;;;;;8.20;99.90;;;;;;5093865;28;19924;-75
2021/05/27 05:40:50;;;;;;;;;;;8.30;99.90;;;;;;5094691;28;19924;-75
2021/05/27 05:43:16;;;;;;;;;;;8.30;99.90;;;;;;5094928;28;19950;-75
2021/05/27 05:45:43;;;;;;;;;;;8.40;99.90;;;;;;5094626;28;20270;-75
2021/05/27 05:48:09;;;;;;;;;;;8.40;99.90;;;;;;5099077;28;20385;-74
2021/05/27 05:50:49;;;;;;;;;;;8.40;99.90;;;;;;5096621;28;19935;-80
2021/05/27 05:53:17;;;;;;;;;;;8.60;99.90;;;;;;5096019;28;19924;-80
2021/05/27 05:55:43;;;;;;;;;;;8.70;99.90;;;;;;5097906;28;19924;-80
2021/05/27 05:58:09;;;;;;;;;;;8.70;99.90;;;;;;5098224;28;19934;-79
2021/05/27 06:00:36;;;;;;;;;;;8.80;99.90;;;;;;5097976;28;19924;-83
2021/05/27 06:03:02;;;;;;;;;;;8.80;99.90;;;;;;5097979;28;19936;-82
2021/05/27 06:05:28;;;;;;;;;;;8.90;99.90;;;;;;5097906;28;20348;-84
2021/05/27 06:07:55;;;;;;;;;;;8.90;99.90;;;;;;5098112;28;19924;-83
2021/05/27 06:10:23;;;;;;;;;;;9.00;99.90;;;;;;5097769;28;19924;-83
2021/05/27 06:12:49;;;;;;;;;;;9.00;99.90;;;;;;5098056;28;19924;-83
2021/05/27 06:15:20;;;;;;;;;;;9.20;99.90;;;;;;5097803;28;19924;-83
2021/05/27 06:17:46;;;;;;;;;;;9.20;99.90;;;;;;5097833;28;19935;-83
2021/05/27 06:20:13;;;;;;;;;;;9.30;99.90;;;;;;5097640;28;19934;-85
2021/05/27 06:22:39;;;;;;;;;;;9.30;99.90;;;;;;5097358;28;19924;-84
2021/05/27 06:25:06;;;;;;;;;;;9.40;99.90;;;;;;5097863;28;19978;-83
2021/05/27 06:27:33;;;;;;;;;;;9.50;99.90;;;;;;5097484;28;19927;-85
2021/05/27 06:29:59;;;;;;;;;;;9.60;99.90;;;;;;5097485;28;19934;-80
2021/05/27 06:32:26;;;;;;;;;;;9.70;99.90;;;;;;5097526;28;19924;-83
2021/05/27 06:34:52;;;;;;;;;;;9.80;99.90;;;;;;5097492;28;19989;-82
2021/05/27 06:37:19;;;;;;;;;;;9.90;99.90;;;;;;5097438;28;19924;-80
2021/05/27 06:39:45;;;;;;;;;;;9.90;99.90;;;;;;5097227;28;19985;-80
2021/05/27 06:42:13;;;;;;;;;;;10.00;99.90;;;;;;5097267;28;19993;-80
2021/05/27 06:44:40;;;;;;;;;;;10.00;99.90;;;;;;5097174;28;19925;-81
2021/05/27 06:47:06;;;;;;;;;;;10.00;99.90;;;;;;5097352;28;19924;-82
2021/05/27 06:49:33;;;;;;;;;;;10.10;99.90;;;;;;5097174;28;19939;-82
2021/05/27 06:52:00;;;;;;;;;;;10.10;99.90;;;;;;5097062;28;19989;-82
2021/05/27 06:54:27;;;;;;;;;;;10.10;99.90;;;;;;5097045;28;19924;-80
2021/05/27 06:56:53;;;;;;;;;;;10.20;99.90;;;;;;5097031;28;19985;-82
2021/05/27 06:59:19;;;;;;;;;;;10.20;99.90;;;;;;5097072;28;19924;-80
2021/05/27 07:01:47;;;;;;;;;;;10.20;99.90;;;;;;5097038;28;19930;-80
2021/05/27 07:04:13;;;;;;;;;;;10.20;99.90;;;;;;5097031;28;19924;-80
2021/05/27 07:06:39;;;;;;;;;;;10.30;99.90;;;;;;5096334;28;19934;-82
2021/05/27 07:09:06;;;;;;;;;;;10.30;99.90;;;;;;5096899;28;19931;-82
2021/05/27 07:11:32;;;;;;;;;;;10.30;99.90;;;;;;5096773;28;19938;-80
2021/05/27 07:13:58;;;;;;;;;;;10.50;99.90;;;;;;5096722;28;20030;-83
2021/05/27 07:16:27;;;;;;;;;;;10.50;99.90;;;;;;5096706;28;19935;-82
2021/05/27 07:18:55;;;;;;;;;;;10.60;99.90;;;;;;5096626;28;19934;-81
2021/05/27 07:21:21;;;;;;;;;;;10.70;99.90;;;;;;5096325;28;19934;-82
2021/05/27 07:23:48;;;;;;;;;;;10.70;99.90;;;;;;5096620;28;19924;-83
2021/05/27 07:26:14;;;;;;;;;;;10.80;99.90;;;;;;5096583;28;19939;-82
2021/05/27 07:28:40;;;;;;;;;;;10.90;99.90;;;;;;5096632;28;19932;-82
2021/05/27 07:31:07;;;;;;;;;;;11.00;99.90;;;;;;5096456;28;19931;-82
2021/05/27 07:33:33;;;;;;;;;;;10.90;99.90;;;;;;5096480;28;20348;-82
2021/05/27 07:36:01;;;;;;;;;;;10.90;99.90;;;;;;5096328;28;19932;-81
2021/05/27 07:38:27;;;;;;;;;;;11.00;99.90;;;;;;5096247;28;19982;-82
2021/05/27 07:40:54;;;;;;;;;;;10.90;99.90;;;;;;5096297;28;19924;-83
2021/05/27 07:43:20;;;;;;;;;;;10.90;99.90;;;;;;5096350;28;19924;-83
2021/05/27 07:45:47;;;;;;;;;;;11.00;99.90;;;;;;5096159;28;19934;-83
2021/05/27 07:48:13;;;;;;;;;;;11.00;99.90;;;;;;5096246;28;19924;-83
2021/05/27 07:50:39;;;;;;;;;;;11.00;99.90;;;;;;5095797;28;19924;-82
2021/05/27 07:53:07;;;;;;;;;;;11.10;99.90;;;;;;5096299;28;19924;-81
2021/05/27 07:55:34;;;;;;;;;;;11.10;99.90;;;;;;5095861;28;19971;-83
2021/05/27 07:58:00;;;;;;;;;;;11.10;99.90;;;;;;5095924;28;19954;-83
2021/05/27 08:00:26;;;;;;;;;;;11.30;99.90;;;;;;5095926;28;19931;-83
2021/05/27 08:02:53;;;;;;;;;;;11.40;99.90;;;;;;5095734;28;19931;-81
2021/05/27 08:05:20;;;;;;;;;;;11.60;99.90;;;;;;5095809;28;20045;-83
2021/05/27 08:07:47;;;;;;;;;;;11.70;99.90;;;;;;5096015;28;19925;-82
2021/05/27 08:10:14;;;;;;;;;;;11.90;99.90;;;;;;5095796;28;19946;-82
2021/05/27 08:12:40;;;;;;;;;;;12.20;99.90;;;;;;5095653;28;20339;-83
2021/05/27 08:15:08;;;;;;;14.63;7.93;;;12.90;99.90;;;;;;5094922;28;20907;-82
2021/05/27 08:17:34;;;;;;;15.40;6.00;;;14.70;99.90;;;;;;5094264;28;20043;-80
2021/05/27 08:20:01;;;;;;;24.33;6.50;;;17.00;99.90;;;;;;5095272;28;20050;-80
2021/05/27 08:22:27;;;;;;;9.38;6.20;;;18.40;99.90;;;;;;5094788;28;20486;-79
2021/05/27 08:24:54;;;;;;;9.30;5.50;;;18.70;99.90;;;;;;5095035;28;20087;-79
2021/05/27 08:27:22;;;;;;;12.80;6.38;;;18.30;99.90;;;;;;5094979;28;20105;-79
2021/05/27 08:29:48;;;;;;;11.63;5.82;;;17.90;99.90;;;;;;5094967;28;20052;-79
2021/05/27 08:32:15;;;;;;;13.77;5.70;;;17.40;99.90;;;;;;5094943;28;20055;-78
2021/05/27 08:34:42;;;;;;;8.77;5.40;;;16.80;99.90;;;;;;5094813;28;20533;-79
2021/05/27 08:37:08;;;;;;;9.20;6.07;;;16.20;99.90;;;;;;5095027;28;20116;-79
2021/05/27 08:39:35;;;;;;;10.77;5.75;;;15.70;99.90;;;;;;5095008;28;20052;-78
2021/05/27 08:42:01;;;;;;;11.07;6.40;;;15.50;99.90;;;;;;5094810;28;20044;-79
2021/05/27 08:44:29;;;;;;;13.85;6.00;;;15.20;99.90;;;;;;5094834;28;20066;-78
2021/05/27 08:46:56;;;;;;;12.05;6.07;;;15.00;99.90;;;;;;5094823;28;20051;-78
2021/05/27 08:49:24;;;;;;;13.43;5.75;;;14.80;99.90;;;;;;5094732;28;20118;-78
2021/05/27 08:51:51;;;;;;;13.00;7.28;;;14.60;99.90;;;;;;5094823;28;20044;-79
2021/05/27 08:54:18;;;;;;;11.77;6.93;;;14.40;99.90;;;;;;5094822;28;20104;-80
2021/05/27 08:56:44;;;;;;;9.43;5.72;;;14.30;99.90;;;;;;5094723;28;20490;-79
2021/05/27 08:59:11;;;;;;;9.50;6.65;;;14.00;99.90;;;;;;5094616;28;20055;-79
2021/05/27 09:02:03;;;;;;;9.38;5.70;;;13.80;99.90;;;;;;5094589;28;20048;-79
2021/05/27 09:04:29;;;;;;;10.27;5.57;;;13.60;99.90;;;;;;5094809;28;20062;-79
2021/05/27 09:06:56;;;;;;;13.40;5.05;;;13.50;99.90;;;;;;5094537;28;20368;-80
2021/05/27 09:09:22;;;;;;;12.82;6.22;;;13.40;99.90;;;;;;5094626;28;20051;-80
2021/05/27 09:11:49;;;;;;;10.25;5.85;;;13.30;99.90;;;;;;5094584;28;20093;-79
2021/05/27 09:14:15;;;;;;;;;;;13.20;99.90;;;;;;5095075;28;20048;-78
2021/05/27 09:16:57;;;;;;;;;;;13.10;99.90;;;;;;5095070;28;19963;-79
2021/05/27 09:19:25;;;;;;;;;;;13.20;99.90;;;;;;5094857;28;19920;-79
2021/05/27 09:21:51;;;;;;;;;;;13.10;99.90;;;;;;5094598;28;19930;-80
2021/05/27 09:24:18;;;;;;;;;;;13.20;99.90;;;;;;5094932;28;19931;-81
2021/05/27 09:26:50;;;;;;;;;;;13.20;99.90;;;;;;5094813;28;19932;-79
2021/05/27 09:29:17;;;;;;;;;;;13.10;99.90;;;;;;5096118;28;19945;-81
2021/05/27 09:31:56;;;;;;;;;;;13.20;99.90;;;;;;5098583;28;19984;-80
2021/05/27 09:34:22;;;;;;;;;;;13.20;99.90;;;;;;5098707;28;19924;-80
2021/05/27 09:36:59;;;;;;;;;;;13.20;99.90;;;;;;5098661;28;19931;-79
2021/05/27 09:39:28;;;;;;;;;;;13.20;99.90;;;;;;5098796;28;19931;-79
2021/05/27 09:41:59;;;;;;;;;;;13.10;99.90;;;;;;5097163;28;19927;-78
2021/05/27 09:44:26;;;;;;;;;;;13.10;99.90;;;;;;5098522;28;19919;-80
2021/05/27 09:46:52;;;;;;;;;;;13.10;99.90;;;;;;5098393;28;19924;-80
2021/05/27 09:49:23;;;;;;;;;;;13.10;99.90;;;;;;5098386;28;19986;-80
2021/05/27 09:51:50;;;;;;;;;;;13.10;99.90;;;;;;5098429;28;19920;-79
2021/05/27 09:54:17;;;;;;;;;;;13.20;99.90;;;;;;5098281;28;19930;-80
2021/05/27 09:56:43;;;;;;;;;;;13.20;99.90;;;;;;5098343;28;19931;-80
2021/05/27 09:59:10;;;;;;;;;;;13.20;99.90;;;;;;5098339;28;19930;-81
2021/05/27 10:01:36;;;;;;;;;;;13.20;99.90;;;;;;5098311;28;19997;-80
2021/05/27 10:04:09;;;;;;;;;;;13.10;99.90;;;;;;5098169;28;20275;-80
2021/05/27 10:06:36;;;;;;;;;;;13.10;99.90;;;;;;5098040;28;20358;-79
2021/05/27 10:09:04;;;;;;;;;;;13.20;99.90;;;;;;5097889;28;19930;-80
2021/05/27 10:11:31;;;;;;;;;;;13.20;99.90;;;;;;5097716;28;19920;-82
2021/05/27 10:13:58;;;;;;;;;;;13.30;99.90;;;;;;5097900;28;19926;-80
2021/05/27 10:16:25;;;;;;;;;;;13.40;99.90;;;;;;5097832;28;20000;-82
2021/05/27 10:18:51;;;;;;;;;;;13.50;99.90;;;;;;5097777;28;19928;-82
2021/05/27 10:21:18;;;;;;;;;;;13.60;99.90;;;;;;5097644;28;19985;-82
2021/05/27 10:23:44;;;;;;;;;;;13.70;99.90;;;;;;5097424;28;19932;-83
2021/05/27 10:26:10;;;;;;;;;;;13.80;99.90;;;;;;5097655;28;19920;-83
2021/05/27 10:28:38;;;;;;;;;;;13.90;99.90;;;;;;5097765;28;19920;-83
2021/05/27 10:31:05;;;;;;;;;;;14.10;99.90;;;;;;5097438;28;19920;-82
2021/05/27 10:33:37;;;;;;;;;;;14.10;99.90;;;;;;5097514;28;19927;-83
2021/05/27 10:36:04;;;;;;;;;;;14.20;99.90;;;;;;5097709;28;19920;-83
2021/05/27 10:38:47;;;;;;;;;;;14.10;99.90;;;;;;5097425;28;20241;-83
2021/05/27 10:41:14;;;;;;;;;;;14.00;99.90;;;;;;5096299;28;19928;-83
2021/05/27 10:43:55;;;;;;;;;;;14.00;99.90;;;;;;5097278;28;19920;-83
2021/05/27 10:46:22;;;;;;;;;;;14.00;99.90;;;;;;5097113;28;19920;-83
2021/05/27 10:48:50;;;;;;;;;;;14.00;99.90;;;;;;5097096;28;19926;-83
2021/05/27 10:51:25;;;;;;;;;;;14.00;99.90;;;;;;5097261;28;19947;-83
2021/05/27 10:53:55;;;;;;;;;;;14.00;99.90;;;;;;5097296;28;20340;-83
2021/05/27 10:56:22;;;;;;;;;;;14.00;99.90;;;;;;5097292;28;19919;-83
2021/05/27 10:59:09;;;;;;;;;;;14.00;99.90;;;;;;5093547;28;19924;-82
2021/05/27 11:01:54;;;;;;;;;;;14.00;99.90;;;;;;5095388;28;19920;-83
2021/05/27 11:04:25;;;;;;;;;;;14.10;99.90;;;;;;5096843;28;19920;-83
2021/05/27 11:07:06;;;;;;;;;;;14.10;99.90;;;;;;5096728;28;19924;-84
2021/05/27 11:09:34;;;;;;;;;;;14.20;99.90;;;;;;5096511;28;19924;-83
2021/05/27 11:12:10;;;;;;;;;;;14.20;99.90;;;;;;5096599;28;20323;-83
2021/05/27 11:14:37;;;;;;;;;;;14.20;99.90;;;;;;5096688;28;19920;-83
2021/05/27 11:17:25;;;;;;;;;;;14.20;99.90;;;;;;5096517;28;19919;-82
2021/05/27 11:19:57;;;;;;;;;;;14.20;99.90;;;;;;5093386;28;19959;-83
2021/05/27 11:22:43;;;;;;;;;;;14.30;99.90;;;;;;5096351;28;20003;-83
2021/05/27 11:25:29;;;;;;;;;;;14.40;99.90;;;;;;5086837;28;19920;-83
2021/05/27 11:27:56;;;;;;;;;;;14.40;99.90;;;;;;5096214;28;19920;-81
2021/05/27 11:30:23;;;;;;;;;;;14.60;99.90;;;;;;5096579;28;19930;-82
2021/05/27 11:32:50;;;;;;;;;;;14.70;99.90;;;;;;5096218;28;19920;-82
2021/05/27 11:35:17;;;;;;;;;;;14.90;99.90;;;;;;5096103;28;19930;-81
2021/05/27 11:37:44;;;;;;;;;;;15.00;99.90;;;;;;5096280;28;20006;-81
2021/05/27 11:40:11;;;;;;;2.38;1.55;;;15.00;99.90;;;;;;5095595;28;19920;-79
2021/05/27 11:42:38;;;;;;;2.75;1.60;;;15.10;99.90;;;;;;5095449;28;20066;-79
2021/05/27 11:45:06;;;;;;;2.55;1.00;;;15.20;99.90;;;;;;5095730;28;20055;-80
2021/05/27 11:47:33;;;;;;;2.45;1.42;;;15.30;99.90;;;;;;5094986;28;20379;-79
2021/05/27 11:50:06;;;;;;;1.70;0.98;;;15.50;99.90;;;;;;5095558;28;20048;-79
2021/05/27 11:52:34;;;;;;;1.23;1.02;;;15.70;99.90;;;;;;5095251;28;20044;-78
2021/05/27 11:55:01;;;;;;;3.08;1.02;;;15.80;99.90;;;;;;5095397;28;20075;-78
2021/05/27 11:57:40;;;;;;;2.33;1.13;;;15.90;99.90;;;;;;5095291;28;20092;-78
2021/05/27 12:00:08;;;;;;;2.38;1.65;;;16.00;99.90;;;;;;5095302;28;20130;-79
2021/05/27 12:02:42;;;;;;;1.02;0.93;;;16.10;99.90;;;;;;5095462;28;20428;-78
2021/05/27 12:05:24;;;;;;;3.03;0.73;;;16.00;99.90;;;;;;5095288;28;20054;-78
2021/05/27 12:08:02;;;;;;;1.95;0.85;;;16.00;99.90;;;;;;5093534;28;20058;-78
2021/05/27 12:10:29;;;;;;;2.10;1.00;;;16.00;99.90;;;;;;5095075;28;20109;-77
2021/05/27 12:12:56;;;;;;;2.17;1.30;;;16.10;99.90;;;;;;5095012;28;20048;-78
2021/05/27 12:15:23;;;;;;;1.08;0.93;;;16.10;99.90;;;;;;5095112;28;20062;-78
2021/05/27 12:17:50;;;;;;;1.67;0.95;;;16.10;99.90;;;;;;5095159;28;20047;-78
2021/05/27 12:20:19;;;;;;;1.48;0.80;;;16.20;99.90;;;;;;5094935;28;20079;-77
2021/05/27 12:22:55;;;;;;;1.23;1.00;;;16.30;99.90;;;;;;5094815;28;20446;-78
2021/05/27 12:25:23;;;;;;;1.75;1.08;;;16.40;99.90;;;;;;5094997;28;20048;-77
2021/05/27 12:27:51;;;;;;;1.55;0.90;;;16.40;99.90;;;;;;5094870;28;20055;-77
2021/05/27 12:30:19;;;;;;;1.38;0.95;;;16.50;99.90;;;;;;5094761;28;20059;-77
2021/05/27 12:32:47;;;;;;;2.30;1.00;;;16.60;99.90;;;;;;5094695;28;20464;-77
2021/05/27 12:35:20;;;;;;;2.05;0.95;;;16.60;99.90;;;;;;5094938;28;20048;-77
2021/05/27 12:37:47;;;;;;;1.52;0.90;;;16.70;99.90;;;;;;5094773;28;20052;-77
2021/05/27 12:40:18;;;;;;;1.92;0.88;;;16.70;99.90;;;;;;5094813;28;20044;-77
2021/05/27 12:42:45;;;;;;;2.22;0.90;;;16.70;99.90;;;;;;5094649;28;20121;-76
2021/05/27 12:45:32;;;;;;;1.02;0.70;;;16.80;99.90;;;;;;5094692;28;20044;-77
2021/05/27 12:48:20;;;;;;;1.67;0.80;;;16.80;99.90;;;;;;5094971;28;20048;-77
2021/05/27 12:51:03;;;;;;;1.23;0.80;;;16.90;99.90;;;;;;5094614;28;20356;-77
2021/05/27 12:53:31;;;;;;;2.10;0.70;;;16.80;99.90;;;;;;5093300;28;20059;-76
2021/05/27 12:55:58;;;;;;;0.98;0.60;;;16.80;99.90;;;;;;5094890;28;20048;-77
2021/05/27 12:58:31;;;;;;;3.40;1.13;;;16.80;99.90;;;;;;5094481;28;20048;-77
2021/05/27 13:00:57;;;;;;;3.08;0.82;;;16.80;99.90;;;;;;5094601;28;20113;-77
2021/05/27 13:03:24;;;;;;;8.50;0.85;;;16.80;99.90;;;;;;5094776;28;20052;-77
2021/05/27 13:06:09;;;;;;;6.85;1.05;;;16.80;99.90;;;;;;5098673;28;20048;-77
2021/05/27 13:08:36;;;;;;;14.32;1.58;;;16.80;99.90;;;;;;5098968;28;20062;-77
2021/05/27 13:11:17;;;;;;;12.55;1.23;;;16.80;99.90;;;;;;5098584;28;20052;-77
2021/05/27 13:13:45;;;;;;;1.50;0.77;;;16.80;99.90;;;;;;5099243;28;20132;-76
2021/05/27 13:16:47;;;;;;;1.25;0.95;;;16.80;99.90;;;;;;5100200;28;20058;-78
2021/05/27 13:19:14;;;;;;;1.98;0.90;;;16.90;99.90;;;;;;5094382;28;20084;-75
2021/05/27 13:21:46;;;;;;;2.58;1.00;;;16.90;99.90;;;;;;5098315;28;20058;-75
2021/05/27 13:24:24;;;;;;;2.08;0.93;;;17.00;99.90;;;;;;5098407;28;20101;-74
2021/05/27 13:27:00;;;;;;;3.50;1.52;;;17.10;99.90;;;;;;5098368;28;20074;-75
2021/05/27 13:29:28;;;;;;;1.50;1.00;;;17.20;99.90;;;;;;5098394;28;20048;-74
2021/05/27 13:31:55;;;;;;;1.67;0.90;;;17.20;99.90;;;;;;5098278;28;20127;-74
2021/05/27 13:34:22;;;;;;;1.10;0.80;;;17.30;99.90;;;;;;5098151;28;20056;-74
2021/05/27 13:36:50;;;;;;;3.30;1.27;;;17.20;99.90;;;;;;5097779;28;20048;-74
2021/05/27 13:39:18;;;;;;;1.67;1.20;;;17.20;99.90;;;;;;5097765;28;20379;-74
2021/05/27 13:41:45;;;;;;;1.50;1.13;;;17.10;99.90;;;;;;5098018;28;20052;-74
2021/05/27 13:44:12;;;;;;;2.92;1.55;;;17.10;99.90;;;;;;5097955;28;20048;-74
2021/05/27 13:46:46;;;;;;;1.50;1.02;;;17.00;99.90;;;;;;5098056;28;20116;-74
2021/05/27 13:49:13;;;;;;;3.83;1.45;;;17.00;99.90;;;;;;5097870;28;20059;-73
2021/05/27 13:51:41;;;;;;;2.00;1.20;;;17.00;99.90;;;;;;5097972;28;20059;-74
2021/05/27 13:54:09;;;;;;;1.98;1.35;;;17.00;99.90;;;;;;5097820;28;20091;-74
2021/05/27 13:56:35;;;;;;;1.60;1.15;;;17.00;99.90;;;;;;5097707;28;20079;-74
2021/05/27 13:59:02;;;;;;;2.35;1.15;;;16.90;99.90;;;;;;5097674;28;20048;-73
2021/05/27 14:01:28;;;;;;;2.00;1.40;;;16.90;99.90;;;;;;5096104;28;20144;-74
2021/05/27 14:03:56;;;;;;;2.83;1.33;;;17.00;99.90;;;;;;5097534;28;20054;-73
2021/05/27 14:06:22;;;;;;;2.50;1.38;;;17.10;99.90;;;;;;5097610;28;20052;-75
2021/05/27 14:08:49;;;;;;;2.40;1.40;;;17.20;99.90;;;;;;5097426;28;20101;-74
2021/05/27 14:11:16;;;;;;;2.13;1.40;;;17.30;99.90;;;;;;5097593;28;20052;-75
2021/05/27 14:13:43;;;;;;;6.50;2.30;;;17.40;99.90;;;;;;5097434;28;20048;-74
2021/05/27 14:16:10;;;;;;;2.50;1.52;;;17.40;99.90;;;;;;5097429;28;20142;-74